Time;durP1;ratioP1;P1;durP2;ratioP2;P2;SDS_P1;SDS_P2;PMS_P1;PMS_P2;Temp;Humidity;BMP_temperature;BMP_pressure;BME280_temperature;BME280_humidity;BME280_pressure;Samples;Min_cycle;Max_cycle;Signal;HPM_P1;HPM_P2
2023/09/28 00:02:23;;;;;;;9.40;6.50;;;19.90;99.90;;;;;;5050660;28;20037;-85
2023/09/28 00:04:49;;;;;;;11.35;8.00;;;19.90;99.90;;;;;;5052381;28;20035;-85
2023/09/28 00:07:15;;;;;;;8.02;7.20;;;19.90;99.90;;;;;;5052878;28;20408;-86
2023/09/28 00:09:41;;;;;;;9.75;7.75;;;19.90;99.90;;;;;;5051334;28;20033;-85
2023/09/28 00:12:08;;;;;;;8.93;7.57;;;19.90;99.90;;;;;;5052543;28;20048;-85
2023/09/28 00:14:34;;;;;;;9.88;8.68;;;19.90;99.90;;;;;;5051943;28;20469;-85
2023/09/28 00:17:18;;;;;;;10.23;8.35;;;20.00;99.90;;;;;;5051888;28;20021;-85
2023/09/28 00:19:43;;;;;;;12.32;8.18;;;19.90;99.90;;;;;;5052284;28;20396;-85
2023/09/28 00:22:12;;;;;;;10.43;8.45;;;19.90;99.90;;;;;;5052917;28;20035;-86
2023/09/28 00:24:37;;;;;;;15.05;10.30;;;19.80;99.90;;;;;;5050659;28;20052;-84
2023/09/28 00:27:04;;;;;;;11.50;9.80;;;19.80;99.90;;;;;;5033881;28;20382;-85
2023/09/28 00:29:30;;;;;;;11.75;10.55;;;19.80;99.90;;;;;;5053121;28;20110;-87
2023/09/28 00:32:04;;;;;;;15.07;12.13;;;19.80;99.90;;;;;;5051555;28;20057;-87
2023/09/28 00:34:30;;;;;;;13.85;12.25;;;19.80;99.90;;;;;;5052712;28;20021;-86
2023/09/28 00:36:56;;;;;;;14.00;12.52;;;19.70;99.90;;;;;;5042456;28;20037;-86
2023/09/28 00:39:22;;;;;;;15.02;12.00;;;19.70;99.90;;;;;;5032630;28;20018;-85
2023/09/28 00:41:49;;;;;;;12.90;11.07;;;19.70;99.90;;;;;;5039484;28;20025;-86
2023/09/28 00:44:15;;;;;;;13.95;11.15;;;19.70;99.90;;;;;;5034915;28;20026;-85
2023/09/28 00:46:42;;;;;;;15.13;12.15;;;19.70;99.90;;;;;;5044833;28;20029;-85
2023/09/28 00:49:15;;;;;;;16.17;11.32;;;19.70;99.90;;;;;;5038911;28;20022;-85
2023/09/28 00:51:41;;;;;;;14.32;10.85;;;19.70;99.90;;;;;;5031325;28;20049;-85
2023/09/28 00:54:07;;;;;;;14.48;11.05;;;19.70;99.90;;;;;;5049683;28;20442;-85
2023/09/28 00:56:32;;;;;;;11.45;9.93;;;19.70;99.90;;;;;;5051982;28;20103;-85
2023/09/28 00:58:59;;;;;;;10.88;9.82;;;19.60;99.90;;;;;;5053305;28;20079;-85
2023/09/28 01:01:29;;;;;;;12.90;9.93;;;19.60;99.90;;;;;;5052139;28;20029;-85
2023/09/28 01:03:56;;;;;;;10.75;9.65;;;19.60;99.90;;;;;;5052333;28;20064;-85
2023/09/28 01:06:24;;;;;;;18.77;9.57;;;19.60;99.90;;;;;;5051107;28;20029;-85
2023/09/28 01:08:50;;;;;;;9.65;8.40;;;19.50;99.90;;;;;;5051621;28;20025;-85
2023/09/28 01:11:20;;;;;;;9.95;7.97;;;19.50;99.90;;;;;;5044635;28;20116;-87
2023/09/28 01:13:46;;;;;;;10.23;7.97;;;19.50;99.90;;;;;;5047756;28;20037;-85
2023/09/28 01:16:13;;;;;;;13.48;7.50;;;19.50;99.90;;;;;;5041147;28;20135;-85
2023/09/28 01:18:38;;;;;;;9.07;8.07;;;19.40;99.90;;;;;;5031294;28;20100;-85
2023/09/28 01:21:06;;;;;;;10.68;6.85;;;19.40;99.90;;;;;;5047805;28;20159;-86
2023/09/28 01:23:32;;;;;;;6.72;6.03;;;19.40;99.90;;;;;;5051614;28;20025;-86
2023/09/28 01:25:58;;;;;;;7.75;5.78;;;19.30;99.90;;;;;;5051819;28;20104;-85
2023/09/28 01:28:25;;;;;;;7.45;5.05;;;19.30;99.90;;;;;;5040095;28;20112;-86
2023/09/28 01:30:53;;;;;;;5.82;5.18;;;19.30;99.90;;;;;;5049878;28;20484;-85
2023/09/28 01:33:19;;;;;;;6.60;4.85;;;19.30;99.90;;;;;;5053357;28;20055;-85
2023/09/28 01:35:50;;;;;;;7.55;5.40;;;19.30;99.90;;;;;;5034220;28;20021;-85
2023/09/28 01:38:30;;;;;;;6.93;4.78;;;19.20;99.90;;;;;;5051585;28;20017;-85
2023/09/28 01:40:56;;;;;;;8.57;5.28;;;19.30;99.90;;;;;;5051335;28;20408;-84
2023/09/28 01:43:22;;;;;;;7.65;4.82;;;19.20;99.90;;;;;;5040385;28;20537;-85
2023/09/28 01:45:49;;;;;;;7.50;5.40;;;19.30;99.90;;;;;;5031795;28;20028;-84
2023/09/28 01:48:15;;;;;;;7.30;4.75;;;19.20;99.90;;;;;;5030641;28;20041;-83
2023/09/28 01:50:50;;;;;;;9.27;5.75;;;19.30;99.90;;;;;;5031880;28;20080;-86
2023/09/28 01:53:15;;;;;;;10.50;5.10;;;19.20;99.90;;;;;;5051128;28;20029;-86
2023/09/28 01:55:41;;;;;;;5.97;4.53;;;19.30;99.90;;;;;;5055208;28;20029;-86
2023/09/28 01:58:10;;;;;;;5.72;4.85;;;19.30;99.90;;;;;;5035240;28;20048;-86
2023/09/28 02:00:36;;;;;;;8.52;4.68;;;19.30;99.90;;;;;;5035206;28;20153;-85
2023/09/28 02:03:08;;;;;;;7.80;5.63;;;19.30;99.90;;;;;;5045223;28;20032;-87
2023/09/28 02:05:34;;;;;;;8.10;4.78;;;19.30;99.90;;;;;;5035174;28;20026;-85
2023/09/28 02:08:05;;;;;;;11.93;4.97;;;19.30;99.90;;;;;;5035205;28;20036;-85
2023/09/28 02:10:32;;;;;;;9.18;6.20;;;19.30;99.90;;;;;;5035033;28;20029;-87
2023/09/28 02:12:57;;;;;;;5.68;5.03;;;19.20;99.90;;;;;;5040647;28;20052;-85
2023/09/28 02:15:23;;;;;;;6.22;5.03;;;19.30;99.90;;;;;;5054796;28;20469;-86
2023/09/28 02:17:49;;;;;;;15.45;4.88;;;18.90;99.90;;;;;;5051506;28;20159;-85
2023/09/28 02:20:16;;;;;;;5.28;4.78;;;19.20;99.90;;;;;;5035311;28;20033;-86
2023/09/28 02:22:45;;;;;;;8.48;5.45;;;19.20;99.90;;;;;;5044805;28;20025;-85
2023/09/28 02:25:30;;;;;;;5.45;4.95;;;19.20;99.90;;;;;;5054638;28;20032;-85
2023/09/28 02:27:56;;;;;;;8.98;4.90;;;19.10;99.90;;;;;;5033763;28;20116;-85
2023/09/28 02:30:23;;;;;;;7.30;4.30;;;19.10;99.90;;;;;;5034730;28;20441;-86
2023/09/28 02:32:50;;;;;;;11.32;4.30;;;19.10;99.90;;;;;;5036441;28;20026;-85
2023/09/28 02:35:16;;;;;;;7.10;4.85;;;19.10;99.90;;;;;;5034533;28;20052;-85
2023/09/28 02:37:45;;;;;;;8.82;4.13;;;19.10;99.90;;;;;;5043230;28;20423;-85
2023/09/28 02:40:11;;;;;;;10.35;4.45;;;19.10;99.90;;;;;;5074301;28;20447;-84
2023/09/28 02:42:37;;;;;;;7.93;3.72;;;19.10;99.90;;;;;;5044710;28;20108;-85
2023/09/28 02:45:11;;;;;;;7.85;4.13;;;19.10;99.90;;;;;;5047865;28;20112;-86
2023/09/28 02:47:39;;;;;;;7.50;3.65;;;19.10;99.90;;;;;;5055106;28;20021;-86
2023/09/28 02:50:09;;;;;;;7.15;4.05;;;19.10;99.90;;;;;;5054227;28;20075;-82
2023/09/28 02:52:36;;;;;;;7.97;4.05;;;19.10;99.90;;;;;;5053325;28;20435;-85
2023/09/28 02:55:04;;;;;;;6.05;3.50;;;19.10;99.90;;;;;;5051918;28;20075;-86
2023/09/28 02:57:29;;;;;;;8.32;4.05;;;19.20;99.90;;;;;;5055834;28;20039;-85
2023/09/28 02:59:55;;;;;;;9.45;3.58;;;19.10;99.90;;;;;;5058291;28;20045;-85
2023/09/28 03:02:21;;;;;;;8.73;3.95;;;19.10;99.90;;;;;;5061249;28;20029;-85
2023/09/28 03:04:46;;;;;;;8.00;4.15;;;19.10;99.90;;;;;;5045063;28;20116;-84
2023/09/28 03:07:12;;;;;;;8.85;4.88;;;19.10;99.90;;;;;;5033492;28;20059;-85
2023/09/28 03:09:38;;;;;;;9.38;4.57;;;19.10;99.90;;;;;;5051658;28;20025;-84
2023/09/28 03:12:07;;;;;;;11.07;4.20;;;19.10;99.90;;;;;;5052699;28;20032;-85
2023/09/28 03:14:32;;;;;;;5.22;4.63;;;19.10;99.90;;;;;;5053714;28;20457;-84
2023/09/28 03:16:58;;;;;;;8.68;4.43;;;19.10;99.90;;;;;;5053657;28;20090;-85
2023/09/28 03:19:24;;;;;;;5.47;4.45;;;19.10;99.90;;;;;;5053136;28;20096;-85
2023/09/28 03:21:49;;;;;;;7.75;4.47;;;19.10;99.90;;;;;;5059402;28;20473;-85
2023/09/28 03:24:15;;;;;;;14.40;5.05;;;19.10;99.90;;;;;;5036880;28;20033;-85
2023/09/28 03:26:41;;;;;;;8.40;5.50;;;19.00;99.90;;;;;;5034099;28;20228;-85
2023/09/28 03:29:07;;;;;;;9.68;4.93;;;19.00;99.90;;;;;;5035046;28;20014;-85
2023/09/28 03:31:33;;;;;;;8.57;5.05;;;18.90;99.90;;;;;;5054930;28;20111;-86
2023/09/28 03:33:59;;;;;;;8.38;4.60;;;19.00;99.90;;;;;;5055230;28;20021;-86
2023/09/28 03:36:25;;;;;;;11.93;5.30;;;18.90;99.90;;;;;;5053771;28;20025;-86
2023/09/28 03:38:51;;;;;;;10.20;4.68;;;18.80;99.90;;;;;;5058573;28;20062;-85
2023/09/28 03:41:17;;;;;;;9.38;5.50;;;18.80;99.90;;;;;;5036116;28;20022;-85
2023/09/28 03:43:44;;;;;;;10.40;5.93;;;18.70;99.90;;;;;;5051645;28;20025;-85
2023/09/28 03:46:10;;;;;;;9.45;5.60;;;18.60;99.90;;;;;;5053172;28;20450;-85
2023/09/28 03:48:35;;;;;;;9.88;5.30;;;18.50;99.90;;;;;;5038121;28;20103;-85
2023/09/28 03:51:01;;;;;;;14.20;5.72;;;17.80;99.90;;;;;;5034387;28;20474;-85
2023/09/28 03:53:27;;;;;;;12.18;5.15;;;18.30;99.90;;;;;;5052982;28;20032;-85
2023/09/28 03:55:53;;;;;;;10.35;4.43;;;18.30;99.90;;;;;;5052019;28;20028;-84
2023/09/28 03:58:18;;;;;;;9.98;4.40;;;18.20;99.90;;;;;;5053689;28;20098;-85
2023/09/28 04:00:44;;;;;;;9.70;4.25;;;18.20;99.90;;;;;;5056911;28;20381;-85
2023/09/28 04:03:10;;;;;;;8.77;4.63;;;18.20;99.90;;;;;;5053414;28;20036;-85
2023/09/28 04:05:36;;;;;;;10.98;4.70;;;18.30;99.90;;;;;;5039735;28;20121;-85
2023/09/28 04:08:02;;;;;;;10.30;4.07;;;18.30;99.90;;;;;;5032225;28;20469;-85
2023/09/28 04:10:28;;;;;;;9.60;4.22;;;18.30;99.90;;;;;;5033454;28;20093;-84
2023/09/28 04:12:53;;;;;;;11.88;3.90;;;18.20;99.90;;;;;;5040328;28;20021;-85
2023/09/28 04:15:19;;;;;;;16.80;6.10;;;18.20;99.90;;;;;;5052277;28;20431;-85
2023/09/28 04:17:45;;;;;;;11.93;4.75;;;18.30;99.90;;;;;;5052404;28;20240;-85
2023/09/28 04:20:12;;;;;;;13.70;4.38;;;18.30;99.90;;;;;;5053036;28;20025;-85
2023/09/28 04:22:38;;;;;;;16.50;5.78;;;18.40;99.90;;;;;;5050922;28;20025;-85
2023/09/28 04:25:04;;;;;;;10.45;5.00;;;18.40;99.90;;;;;;5052926;28;20025;-84
2023/09/28 04:27:29;;;;;;;9.07;4.78;;;18.30;99.90;;;;;;5043400;28;20033;-84
2023/09/28 04:29:57;;;;;;;13.52;4.82;;;18.30;99.90;;;;;;5043440;28;20041;-85
2023/09/28 04:32:22;;;;;;;13.18;5.30;;;18.20;99.90;;;;;;5037611;28;20485;-85
2023/09/28 04:34:48;;;;;;;23.88;5.00;;;18.10;99.90;;;;;;5055897;28;20032;-84
2023/09/28 04:37:16;;;;;;;24.45;5.60;;;18.10;99.90;;;;;;5054003;28;20086;-85
2023/09/28 04:39:42;;;;;;;19.33;4.25;;;18.10;99.90;;;;;;5051462;28;20380;-83
2023/09/28 04:42:08;;;;;;;25.63;5.20;;;18.00;99.90;;;;;;5052474;28;20032;-84
2023/09/28 04:44:34;;;;;;;24.75;5.60;;;18.00;99.90;;;;;;5052852;28;20025;-84
2023/09/28 04:46:59;;;;;;;27.25;5.35;;;18.00;99.90;;;;;;5051692;28;20025;-85
2023/09/28 04:49:25;;;;;;;31.88;5.65;;;18.00;99.90;;;;;;5048889;28;20044;-84
2023/09/28 04:51:51;;;;;;;27.02;4.82;;;17.90;99.90;;;;;;5051777;28;20460;-84
2023/09/28 04:54:17;;;;;;;27.40;5.53;;;17.90;99.90;;;;;;5054771;28;20029;-84
2023/09/28 04:56:43;;;;;;;26.83;5.13;;;17.90;99.90;;;;;;5042942;28;20095;-85
2023/09/28 04:59:08;;;;;;;23.10;5.07;;;17.90;99.90;;;;;;5038780;28;20069;-84
2023/09/28 05:01:34;;;;;;;25.90;4.90;;;17.70;99.90;;;;;;5053757;28;20021;-84
2023/09/28 05:04:00;;;;;;;26.10;5.10;;;17.80;99.90;;;;;;5052840;28;20027;-85
2023/09/28 05:06:26;;;;;;;30.40;5.72;;;17.70;99.90;;;;;;5046137;28;20384;-85
2023/09/28 05:08:52;;;;;;;25.17;5.03;;;17.70;99.90;;;;;;5050124;28;20033;-83
2023/09/28 05:11:18;;;;;;;27.52;6.13;;;18.10;99.90;;;;;;5050107;28;20044;-84
2023/09/28 05:13:43;;;;;;;24.05;5.05;;;17.70;99.90;;;;;;5050397;28;20036;-86
2023/09/28 05:16:09;;;;;;;24.90;5.28;;;17.60;99.90;;;;;;5050468;28;20388;-83
2023/09/28 05:18:36;;;;;;;23.23;5.18;;;17.60;99.90;;;;;;5049786;28;20416;-85
2023/09/28 05:21:02;;;;;;;30.50;5.22;;;17.50;99.90;;;;;;5051559;28;20021;-85
2023/09/28 05:23:27;;;;;;;16.23;3.80;;;17.50;99.90;;;;;;5051815;28;20094;-85
2023/09/28 05:25:53;;;;;;;33.40;5.40;;;17.50;99.90;;;;;;5050530;28;20453;-84
2023/09/28 05:28:18;;;;;;;21.63;4.72;;;17.70;99.90;;;;;;5057360;28;20089;-84
2023/09/28 05:30:44;;;;;;;32.28;5.95;;;17.50;99.90;;;;;;5050169;28;20094;-84
2023/09/28 05:33:10;;;;;;;27.10;5.57;;;17.50;99.90;;;;;;5051818;28;20025;-84
2023/09/28 05:35:35;;;;;;;19.70;4.82;;;17.50;99.90;;;;;;5055019;28;20373;-85
2023/09/28 05:38:02;;;;;;;35.85;6.18;;;17.40;99.90;;;;;;5059040;28;20009;-84
2023/09/28 05:40:28;;;;;;;29.70;5.35;;;17.30;99.90;;;;;;5055085;28;20360;-84
2023/09/28 05:42:54;;;;;;;33.17;5.80;;;17.40;99.90;;;;;;5054573;28;20112;-84
2023/09/28 05:45:19;;;;;;;23.98;5.15;;;17.30;99.90;;;;;;5055187;28;20044;-84
2023/09/28 05:47:46;;;;;;;25.63;4.50;;;17.80;99.90;;;;;;5053622;28;20394;-84
2023/09/28 05:50:11;;;;;;;31.63;6.68;;;17.30;99.90;;;;;;5049028;28;20446;-83
2023/09/28 05:52:37;;;;;;;29.70;5.32;;;17.30;99.90;;;;;;5035113;28;20025;-84
2023/09/28 05:55:03;;;;;;;31.13;6.22;;;17.20;99.90;;;;;;5053892;28;20063;-84
2023/09/28 05:57:29;;;;;;;26.40;5.18;;;17.20;99.90;;;;;;5054652;28;20025;-83
2023/09/28 05:59:55;;;;;;;35.50;6.00;;;17.20;99.90;;;;;;5046327;28;20045;-83
2023/09/28 06:02:21;;;;;;;24.27;4.93;;;17.20;99.90;;;;;;5034581;28;20025;-84
2023/09/28 06:04:47;;;;;;;30.80;5.70;;;17.00;99.90;;;;;;5034958;28;20032;-84
2023/09/28 06:07:13;;;;;;;35.40;5.78;;;17.10;99.90;;;;;;5035477;28;20025;-84
2023/09/28 06:09:40;;;;;;;35.13;6.82;;;17.60;99.90;;;;;;5047862;28;20021;-84
2023/09/28 06:12:06;;;;;;;31.42;5.82;;;17.10;99.90;;;;;;5039914;28;20051;-84
2023/09/28 06:14:32;;;;;;;32.13;6.03;;;17.10;99.90;;;;;;5043471;28;20030;-84
2023/09/28 06:16:58;;;;;;;32.90;6.55;;;17.10;99.90;;;;;;5034357;28;20025;-84
2023/09/28 06:19:23;;;;;;;27.92;5.95;;;17.10;99.90;;;;;;5035308;28;20068;-84
2023/09/28 06:21:49;;;;;;;28.85;6.90;;;17.20;99.90;;;;;;5038134;28;20025;-85
2023/09/28 06:24:15;;;;;;;27.73;5.95;;;17.10;99.90;;;;;;5038809;28;20060;-85
2023/09/28 06:26:40;;;;;;;32.10;5.72;;;17.80;99.90;;;;;;5034699;28;20525;-85
2023/09/28 06:29:06;;;;;;;33.40;6.38;;;17.80;99.90;;;;;;5033628;28;20025;-86
2023/09/28 06:31:33;;;;;;;28.52;5.70;;;17.80;99.90;;;;;;5034166;28;20068;-85
2023/09/28 06:34:08;;;;;;;29.98;6.78;;;17.50;99.90;;;;;;5039749;28;20389;-85
2023/09/28 06:36:33;;;;;;;40.75;5.97;;;17.20;99.90;;;;;;5050400;28;20032;-85
2023/09/28 06:38:59;;;;;;;26.02;5.82;;;17.10;99.90;;;;;;5056809;28;20609;-85
2023/09/28 06:41:25;;;;;;;18.25;4.60;;;17.10;99.90;;;;;;5056759;28;20380;-85
2023/09/28 06:43:51;;;;;;;29.95;6.05;;;17.20;99.90;;;;;;5052318;28;20032;-86
2023/09/28 06:46:17;;;;;;;30.08;6.03;;;17.80;99.90;;;;;;5053174;28;20067;-82
2023/09/28 06:48:45;;;;;;;25.02;5.63;;;17.20;99.90;;;;;;5051728;28;20291;-84
2023/09/28 06:51:11;;;;;;;28.48;5.22;;;17.30;99.90;;;;;;5051540;28;20499;-82
2023/09/28 06:53:38;;;;;;;32.13;5.88;;;17.30;99.90;;;;;;5048591;28;20014;-83
2023/09/28 06:56:04;;;;;;;21.02;4.82;;;17.20;99.90;;;;;;5045737;28;20044;-82
2023/09/28 06:58:30;;;;;;;31.05;5.68;;;17.30;99.90;;;;;;5033225;28;20050;-82
2023/09/28 07:00:58;;;;;;;26.23;5.28;;;17.30;99.90;;;;;;5051315;28;20090;-83
2023/09/28 07:03:23;;;;;;;24.50;5.57;;;17.40;99.90;;;;;;5053009;28;20024;-83
2023/09/28 07:05:49;;;;;;;31.63;6.30;;;18.40;99.90;;;;;;5050422;28;20028;-84
2023/09/28 07:08:14;;;;;;;36.58;5.60;;;17.40;99.90;;;;;;5049734;28;20025;-84
2023/09/28 07:10:40;;;;;;;36.95;5.45;;;17.30;99.90;;;;;;5049130;28;20115;-84
2023/09/28 07:13:06;;;;;;;27.25;5.85;;;17.40;99.90;;;;;;5049301;28;20040;-83
2023/09/28 07:15:33;;;;;;;32.10;6.78;;;17.30;99.90;;;;;;5057726;28;20055;-84
2023/09/28 07:18:00;;;;;;;35.42;6.82;;;17.60;99.90;;;;;;5050659;28;20056;-84
2023/09/28 07:20:26;;;;;;;33.85;6.35;;;17.40;99.90;;;;;;5049581;28;20032;-84
2023/09/28 07:22:53;;;;;;;29.38;5.18;;;17.40;99.90;;;;;;5053478;28;20029;-84
2023/09/28 07:25:19;;;;;;;34.88;6.25;;;17.40;99.90;;;;;;5053101;28;20040;-84
2023/09/28 07:27:49;;;;;;;38.33;7.25;;;18.10;99.90;;;;;;5053162;28;20021;-85
2023/09/28 07:30:15;;;;;;;31.15;5.75;;;17.50;99.90;;;;;;5053004;28;20025;-85
2023/09/28 07:32:41;;;;;;;26.52;5.90;;;17.40;99.90;;;;;;5052935;28;20029;-85
2023/09/28 07:35:11;;;;;;;29.42;6.18;;;17.40;99.90;;;;;;5053733;28;20021;-82
2023/09/28 07:37:37;;;;;;;30.92;5.55;;;17.40;99.90;;;;;;5042249;28;20036;-84
2023/09/28 07:40:04;;;;;;;31.63;5.95;;;18.10;99.90;;;;;;5052969;28;20117;-86
2023/09/28 07:42:30;;;;;;;31.13;6.18;;;17.40;99.90;;;;;;5057886;28;20017;-83
2023/09/28 07:44:56;;;;;;;37.50;6.47;;;17.50;99.90;;;;;;5045821;28;20083;-81
2023/09/28 07:47:21;;;;;;;34.13;6.53;;;18.20;99.90;;;;;;5032590;28;20037;-83
2023/09/28 07:49:47;;;;;;;24.95;5.22;;;17.70;99.90;;;;;;5032513;28;20034;-82
2023/09/28 07:52:13;;;;;;;31.77;6.13;;;17.50;99.90;;;;;;5033274;28;20547;-79
2023/09/28 07:54:39;;;;;;;28.80;5.70;;;17.50;99.90;;;;;;5031553;28;20022;-82
2023/09/28 07:57:06;;;;;;;36.40;7.28;;;17.60;99.90;;;;;;5032954;28;20017;-94
2023/09/28 07:59:33;;;;;;;27.98;5.85;;;17.60;99.90;;;;;;5048780;28;20049;-92
2023/09/28 08:01:58;;;;;;;21.90;5.78;;;18.20;99.90;;;;;;5035977;28;20145;-87
2023/09/28 08:04:25;;;;;;;33.90;6.00;;;17.60;99.90;;;;;;5048417;28;20119;-90
2023/09/28 08:06:51;;;;;;;35.95;6.22;;;17.60;99.90;;;;;;5050563;28;20025;-91
2023/09/28 08:09:19;;;;;;;31.25;6.18;;;17.60;99.90;;;;;;5053327;28;20021;-88
2023/09/28 08:11:45;;;;;;;28.30;6.28;;;17.60;99.90;;;;;;5047359;28;20474;-89
2023/09/28 08:14:15;;;;;;;28.75;5.63;;;17.50;99.90;;;;;;5035718;28;20033;-85
2023/09/28 08:16:44;;;;;;;36.83;7.57;;;17.70;99.90;;;;;;5030847;28;20116;-92
2023/09/28 08:19:10;;;;;;;35.15;6.85;;;17.70;99.90;;;;;;5046800;28;20110;-87
2023/09/28 08:21:38;;;;;;;30.70;6.47;;;17.70;99.90;;;;;;5055683;28;20485;-86
2023/09/28 08:24:08;;;;;;;26.10;6.03;;;17.70;99.90;;;;;;5045401;28;20041;-86
2023/09/28 08:26:35;;;;;;;29.85;6.05;;;17.80;99.90;;;;;;5060710;28;20039;-88
2023/09/28 08:29:01;;;;;;;26.02;6.63;;;18.60;99.90;;;;;;5061614;28;20036;-84
2023/09/28 08:31:27;;;;;;;31.60;6.95;;;18.60;99.90;;;;;;5063096;28;20102;-84
2023/09/28 08:33:53;;;;;;;33.05;6.90;;;17.70;99.90;;;;;;5054749;28;20024;-83
2023/09/28 08:36:21;;;;;;;36.70;7.05;;;17.80;99.90;;;;;;5053787;28;20049;-83
2023/09/28 08:38:48;;;;;;;24.70;4.97;;;17.90;99.90;;;;;;5039759;28;20079;-83
2023/09/28 08:41:16;;;;;;;35.38;5.55;;;17.90;99.90;;;;;;5042948;28;20062;-83
2023/09/28 08:43:43;;;;;;;22.02;5.97;;;19.00;99.90;;;;;;5042161;28;20025;-82
2023/09/28 08:46:14;;;;;;;32.63;5.60;;;18.00;99.90;;;;;;5050686;28;20025;-91
2023/09/28 08:48:45;;;;;;;26.85;5.75;;;18.10;99.90;;;;;;5048369;28;20043;-90
2023/09/28 08:51:11;;;;;;;31.90;6.20;;;18.00;99.90;;;;;;5048872;28;20112;-90
2023/09/28 08:53:43;;;;;;;28.20;5.18;;;18.00;99.90;;;;;;5050188;28;20017;-90
2023/09/28 08:56:09;;;;;;;30.13;5.72;;;17.90;99.90;;;;;;5052424;28;20021;-88
2023/09/28 08:58:36;;;;;;;26.05;5.40;;;18.00;99.90;;;;;;5053051;28;20041;-89
2023/09/28 09:01:03;;;;;;;28.50;5.60;;;18.10;99.90;;;;;;5050322;28;20030;-90
2023/09/28 09:03:31;;;;;;;25.80;5.15;;;18.10;99.90;;;;;;5060940;28;20017;-89
2023/09/28 09:05:57;;;;;;;30.30;6.72;;;18.20;99.90;;;;;;5054570;28;20056;-89
2023/09/28 09:08:25;;;;;;;27.52;5.68;;;18.20;99.90;;;;;;5035285;28;20079;-91
2023/09/28 09:10:52;;;;;;;35.38;6.38;;;19.00;99.90;;;;;;5040559;28;20032;-88
2023/09/28 09:13:19;;;;;;;27.90;5.82;;;18.30;99.90;;;;;;5038813;28;20033;-88
2023/09/28 09:15:45;;;;;;;27.13;5.18;;;18.30;99.90;;;;;;5046509;28;20033;-90
2023/09/28 09:18:20;;;;;;;25.15;4.82;;;18.40;99.90;;;;;;5056229;28;20021;-90
2023/09/28 09:20:46;;;;;;;28.33;5.68;;;18.40;99.90;;;;;;5057206;28;20025;-87
2023/09/28 09:23:13;;;;;;;29.40;6.20;;;18.50;99.90;;;;;;5060410;28;20037;-90
2023/09/28 09:25:44;;;;;;;33.78;6.38;;;18.40;99.90;;;;;;5056830;28;20152;-88
2023/09/28 09:28:11;;;;;;;22.95;5.85;;;18.30;99.90;;;;;;5043789;28;20017;-88
2023/09/28 09:30:37;;;;;;;20.20;5.60;;;18.40;99.90;;;;;;5046136;28;20110;-89
2023/09/28 09:33:06;;;;;;;26.45;4.82;;;18.40;99.90;;;;;;5048161;28;20516;-89
2023/09/28 09:35:33;;;;;;;29.38;5.47;;;18.40;99.90;;;;;;5041996;28;20060;-88
2023/09/28 09:37:59;;;;;;;31.58;5.00;;;18.50;99.90;;;;;;5053627;28;20025;-89
2023/09/28 09:40:25;;;;;;;23.17;5.80;;;18.60;99.90;;;;;;5057717;28;20075;-89
2023/09/28 09:42:52;;;;;;;42.40;6.45;;;18.50;99.90;;;;;;5066210;28;20024;-88
2023/09/28 09:45:23;;;;;;;27.67;5.90;;;18.40;99.90;;;;;;5079459;28;20024;-89
2023/09/28 09:47:49;;;;;;;17.88;4.70;;;18.50;99.90;;;;;;5068256;28;20021;-90
2023/09/28 09:50:17;;;;;;;34.72;6.43;;;18.50;99.90;;;;;;5047885;28;20029;-89
2023/09/28 09:52:45;;;;;;;29.15;5.75;;;18.50;99.90;;;;;;5057354;28;20480;-89
2023/09/28 09:55:12;;;;;;;20.30;4.63;;;18.50;99.90;;;;;;5057209;28;20021;-89
2023/09/28 09:57:42;;;;;;;27.30;4.55;;;18.50;99.90;;;;;;5066174;28;20017;-89
2023/09/28 10:00:08;;;;;;;20.85;4.78;;;18.50;99.90;;;;;;5069568;28;20047;-89
2023/09/28 10:02:39;;;;;;;23.58;5.40;;;18.50;99.90;;;;;;5060822;28;20423;-89
2023/09/28 10:05:08;;;;;;;;;;;18.50;99.90;;;;;;5072232;28;20047;-90
2023/09/28 10:07:37;;;;;;;31.00;6.03;;;18.50;99.90;;;;;;5075851;28;20280;-90
2023/09/28 10:10:03;;;;;;;22.38;4.00;;;18.50;99.90;;;;;;5042685;28;20022;-89
2023/09/28 10:12:30;;;;;;;23.60;5.07;;;18.50;99.90;;;;;;5036474;28;20040;-88
2023/09/28 10:14:58;;;;;;;25.27;5.18;;;18.90;99.90;;;;;;5055795;28;20025;-88
2023/09/28 10:17:28;;;;;;;28.85;5.05;;;18.40;99.90;;;;;;5050332;28;20104;-91
2023/09/28 10:19:57;;;;;;;23.73;5.63;;;18.60;99.90;;;;;;5035772;28;20021;-89
2023/09/28 10:22:22;;;;;;;24.77;5.40;;;18.60;99.90;;;;;;5037860;28;20034;-89
2023/09/28 10:24:48;;;;;;;20.55;4.70;;;18.60;99.90;;;;;;5038028;28;20038;-90
2023/09/28 10:27:14;;;;;;;21.13;4.35;;;18.90;99.90;;;;;;5046747;28;20025;-85
2023/09/28 10:29:41;;;;;;;25.30;5.53;;;18.90;99.90;;;;;;5042590;28;20549;-84
2023/09/28 10:32:13;;;;;;;25.40;5.45;;;18.70;99.90;;;;;;5041427;28;20033;-84
2023/09/28 10:34:43;;;;;;;21.42;5.00;;;19.20;99.90;;;;;;5053761;28;20056;-84
2023/09/28 10:37:11;;;;;;;26.20;5.43;;;18.80;99.90;;;;;;5053464;28;20029;-83
2023/09/28 10:39:37;;;;;;;31.33;5.68;;;18.80;99.90;;;;;;5053830;28;20108;-83
2023/09/28 10:42:10;;;;;;;28.45;5.25;;;18.90;99.90;;;;;;5053944;28;20043;-83
2023/09/28 10:44:46;;;;;;;23.92;5.63;;;18.90;99.90;;;;;;5058325;28;20044;-83
2023/09/28 10:47:11;;;;;;;24.90;4.72;;;19.40;99.90;;;;;;5061915;28;20032;-83
2023/09/28 10:49:37;;;;;;;23.08;5.43;;;18.90;99.90;;;;;;5037395;28;20022;-84
2023/09/28 10:52:02;;;;;;;26.08;5.25;;;18.80;99.90;;;;;;5058018;28;20036;-83
2023/09/28 10:54:29;;;;;;;25.38;4.90;;;18.90;99.90;;;;;;5052276;28;20473;-85
2023/09/28 10:56:55;;;;;;;28.48;4.65;;;18.90;99.90;;;;;;5051040;28;20033;-84
2023/09/28 10:59:21;;;;;;;34.35;5.63;;;18.80;99.90;;;;;;5055663;28;20075;-86
2023/09/28 11:01:48;;;;;;;23.63;4.80;;;18.80;99.90;;;;;;5061079;28;20020;-86
2023/09/28 11:04:16;;;;;;;23.50;4.65;;;18.80;99.90;;;;;;5052580;28;20041;-85
2023/09/28 11:06:43;;;;;;;30.00;4.45;;;18.80;99.90;;;;;;5050611;28;20032;-88
2023/09/28 11:09:09;;;;;;;19.85;4.55;;;18.80;99.90;;;;;;5042799;28;20030;-86
2023/09/28 11:11:37;;;;;;;27.38;5.22;;;18.80;99.90;;;;;;5032979;28;20124;-86
2023/09/28 11:14:05;;;;;;;21.52;5.05;;;18.90;99.90;;;;;;5034206;28;20025;-86
2023/09/28 11:16:33;;;;;;;25.00;4.72;;;18.90;99.90;;;;;;5034855;28;20496;-86
2023/09/28 11:18:59;;;;;;;21.02;5.00;;;19.20;99.90;;;;;;5034086;28;20029;-87
2023/09/28 11:21:26;;;;;;;21.63;4.90;;;18.90;99.90;;;;;;5035143;28;20026;-85
2023/09/28 11:23:52;;;;;;;21.55;4.72;;;18.90;99.90;;;;;;5033945;28;20107;-85
2023/09/28 11:26:19;;;;;;;16.27;4.20;;;18.90;99.90;;;;;;5041885;28;20048;-87
2023/09/28 11:28:46;;;;;;;21.92;4.65;;;18.90;99.90;;;;;;5041922;28;20025;-86
2023/09/28 11:31:13;;;;;;;18.60;4.15;;;19.00;99.90;;;;;;5041762;28;20123;-87
2023/09/28 11:33:40;;;;;;;23.95;4.80;;;18.90;99.90;;;;;;5053168;28;20021;-86
2023/09/28 11:36:07;;;;;;;17.95;4.22;;;19.00;99.90;;;;;;5018942;28;20508;-86
2023/09/28 11:38:32;;;;;;;15.43;3.63;;;19.00;99.90;;;;;;5032071;28;20174;-86
2023/09/28 11:40:58;;;;;;;21.52;5.50;;;19.10;99.90;;;;;;5032982;28;20029;-85
2023/09/28 11:43:24;;;;;;;20.58;4.63;;;19.00;99.90;;;;;;5031116;28;20458;-84
2023/09/28 11:45:51;;;;;;;13.57;3.63;;;19.10;99.90;;;;;;5050298;28;20116;-85
2023/09/28 11:48:19;;;;;;;26.35;4.20;;;19.10;99.90;;;;;;5050937;28;20059;-84
2023/09/28 11:50:45;;;;;;;25.85;4.85;;;20.10;99.90;;;;;;5048318;28;20157;-86
2023/09/28 11:53:11;;;;;;;18.92;4.00;;;19.10;99.90;;;;;;5051458;28;20026;-85
2023/09/28 11:55:38;;;;;;;15.90;3.88;;;19.00;99.90;;;;;;5046252;28;20025;-84
2023/09/28 11:58:11;;;;;;;23.48;4.57;;;19.00;99.90;;;;;;5045577;28;20056;-84
2023/09/28 12:00:37;;;;;;;18.77;4.28;;;19.20;99.90;;;;;;5046692;28;20092;-84
2023/09/28 12:03:06;;;;;;;18.70;4.22;;;19.10;99.90;;;;;;5034458;28;20032;-85
2023/09/28 12:05:33;;;;;;;18.77;5.40;;;19.00;99.90;;;;;;5034660;28;20052;-83
2023/09/28 12:07:59;;;;;;;16.75;4.18;;;19.10;99.90;;;;;;5042273;28;20051;-87
2023/09/28 12:10:24;;;;;;;13.18;4.20;;;19.10;99.90;;;;;;5049927;28;20476;-85
2023/09/28 12:12:50;;;;;;;20.05;4.72;;;19.20;99.90;;;;;;5047389;28;20029;-84
2023/09/28 12:15:16;;;;;;;24.02;5.03;;;19.20;99.90;;;;;;5044269;28;20044;-84
2023/09/28 12:17:42;;;;;;;22.52;4.60;;;19.20;99.90;;;;;;5047047;28;20029;-84
2023/09/28 12:20:12;;;;;;;16.17;3.75;;;19.30;99.90;;;;;;5043432;28;20106;-85
2023/09/28 12:22:42;;;;;;;17.98;4.35;;;19.30;99.90;;;;;;5043818;28;20115;-85
2023/09/28 12:25:10;;;;;;;19.35;3.97;;;19.10;99.90;;;;;;5050105;28;20036;-85
2023/09/28 12:27:36;;;;;;;14.25;4.13;;;19.30;99.90;;;;;;5045443;28;20060;-85
2023/09/28 12:30:03;;;;;;;16.98;4.07;;;19.40;99.90;;;;;;5030423;28;20029;-85
2023/09/28 12:32:29;;;;;;;12.65;4.05;;;19.30;99.90;;;;;;5045373;28;20041;-84
2023/09/28 12:34:59;;;;;;;17.08;4.07;;;19.40;99.90;;;;;;5043574;28;20025;-82
2023/09/28 12:37:25;;;;;;;18.00;4.05;;;19.40;99.90;;;;;;5036537;28;20033;-85